Date,TemperatureHighF,TemperatureAvgF,TemperatureLowF,DewpointHighF,DewpointAvgF,DewpointLowF,HumidityHigh,HumidityAvg,HumidityLow,PressureMaxIn,PressureMinIn,WindSpeedMaxMPH,WindSpeedAvgMPH,GustSpeedMaxMPH,PrecipitationSumIn
2013-8-1,75.5,68.4,61.3,67.0,64.2,59.2,97,87,71,29.94,29.85,14,1,16,0.34
2013-8-2,75.4,66.7,59.1,65.8,60.4,56.5,97,82,53,30.00,29.90,30,2,30,0.21
2013-8-3,68.0,66.4,65.3,66.6,65.4,64.5,98,97,93,29.99,29.93,14,1,14,0.04
2013-8-9,75.3,68.8,61.2,67.8,62.6,54.4,98,82,49,30.04,29.92,4,1,14,0.33
2013-8-10,75.6,67.4,59.4,63.9,59.6,56.1,97,77,56,30.16,30.03,6,0,14,0.00
2013-8-11,82.3,68.9,58.0,65.4,59.4,55.6,94,73,47,30.17,30.07,12,1,14,0.00
2013-8-12,74.1,68.5,61.8,69.0,64.0,58.8,94,86,74,30.09,29.86,14,1,14,0.03
2013-8-13,69.7,63.9,56.2,66.6,58.7,48.1,98,84,63,30.02,29.82,22,1,28,0.18
2013-8-14,68.8,60.4,52.6,56.1,52.3,47.3,94,75,53,30.20,30.02,28,1,28,0.00
2013-8-15,71.2,60.6,51.8,57.8,53.4,50.1,95,79,54,30.23,30.16,12,0,12,0.00
2013-8-16,75.8,62.1,51.0,60.8,55.3,49.9,98,80,55,30.24,30.17,12,0,12,0.00
2013-8-17,81.3,65.8,53.3,64.1,57.4,52.3,98,77,45,30.29,30.23,18,1,18,0.00
2013-8-18,79.2,67.4,56.8,67.0,61.2,55.1,96,81,57,30.25,30.15,14,0,14,0.00
2013-8-19,79.1,68.7,61.1,67.4,62.7,57.4,98,83,50,30.17,30.10,10,1,10,0.00
2013-8-20,83.3,71.8,62.2,67.0,61.6,57.1,89,72,49,30.20,30.11,16,1,16,0.00
2013-8-21,88.5,74.4,64.3,68.7,64.1,60.3,89,72,43,30.21,30.05,20,1,20,0.00
2013-8-22,82.3,72.5,65.6,70.3,67.1,63.8,95,84,64,30.10,30.00,18,1,18,0.00
2013-8-23,81.3,71.1,58.2,67.8,61.0,51.1,98,74,37,30.22,30.03,22,1,22,0.01
2013-8-24,81.1,67.3,55.7,61.3,56.7,52.5,95,72,40,30.35,30.21,18,1,18,0.00
2013-8-25,85.0,71.5,57.5,66.4,60.2,54.3,94,69,48,30.36,30.22,14,1,14,0.00
2013-8-26,86.4,76.0,66.1,70.1,63.9,58.8,85,67,48,30.24,30.00,20,2,20,0.01
2013-8-27,79.7,75.2,69.2,75.4,71.0,67.7,98,87,72,30.04,29.91,24,1,24,0.75
2013-8-28,83.8,72.8,68.9,72.9,71.1,62.7,98,95,86,30.29,29.83,16,1,16,0.09
2013-8-29,85.4,74.5,65.5,74.7,69.9,64.0,99,86,63,30.09,29.98,12,1,12,0.00
2013-8-30,86.7,75.0,63.3,73.7,67.9,62.5,99,80,56,30.04,29.80,20,1,20,0.01
2013-8-31,81.8,73.9,67.6,73.5,69.7,66.4,98,87,72,29.86,29.75,18,1,18,0.00